Piedmont, KS (67122)

2:39 AM CDT on July 29, 2015 (GMT -0500)
Logan Township | | Change Station
CLOSE
Current Station
Personal Weather Station
Location: Leon, KS
Elevation: 1355 ft
Nearby Weather Stations

Elev 1355 ft 37.62 °N, 96.75 °W | Updated 12 minutes ago

Partly Cloudy
Partly Cloudy
74.5 °F
Feels Like 73 °F
N
0.0
Wind Variable Wind from NW

Today
High -- | Low -- °F
--% Chance of Precip.
Yesterday
High -- | Low -- °F
Precip. -- in
6:26 AM 8:36 PM
Waxing Gibbous, 94% visible
Pressure 29.94 in
Visibility 10.0 miles
Clouds Mostly Cloudy 8000 ft
Heat Index 73 °F
Dew Point 71 °F
Humidity 89%
Rainfall 0.00 in
Snow Depth Not available.
UV 0 out of 12
Pollen 5.80 out of 12
Air Quality Not available.
Flu Activity Not available.
METAR KAAO 290654Z AUTO 22004KT 10SM BKN080 28/19 A3000 RMK AO2 SLP138 T02780194

More Conditions Fewer Conditions

Pressure 29.94 in
Visibility 10.0 miles
Clouds Mostly Cloudy 8000 ft
Heat Index 73 °F
Dew Point 71 °F
Humidity 89%
Rainfall 0.00 in
Snow Depth Not available.
UV 0 out of 12
Pollen 5.80 out of 12
Air Quality Not available.
Flu Activity Not available.
METAR KAAO 290654Z AUTO 22004KT 10SM BKN080 28/19 A3000 RMK AO2 SLP138 T02780194

More Conditions Fewer Conditions

10-Day Weather Forecast

×

Almanac

Astronomy

Jul. 29, 2015 Rise Set
Actual Time
Civil Twilight
Nautical Twilight
Astronomical Twilight
Moon
Length of Visible Light
Length of Day
Tomorrow will be .
, % of the Moon is Illuminated

Today's Extremes

State Highs State Lows

Community

WunderPhotos

Upload Photos

1,842,065 photos uploaded!

WunderBlogs® & News

Nearby

Air Quality

  Air Quality AQ Index Pollutant
Not available.

Snow Depth

Station Depth Elevation

Earthquake Activity

City Distance Mag. Time & Date
Minimum magnitude displayed is 2.5.

Coastal Water Temperatures

Place Temperature

Stations

Nearby Weather Stations

Station Location Temp. Windchill Dew Point Humidity Wind Precip. Elev Updated Type